sensor_id;sensor_type;location;lat;lon;timestamp;P1;durP1;ratioP1;P2;durP2;ratioP2
7471;SDS011;3777;48.722;8.110;2023-06-14T00:00:15;6.97;;;4.80;;
7471;SDS011;3777;48.722;8.110;2023-06-14T00:02:42;5.30;;;4.80;;
7471;SDS011;3777;48.722;8.110;2023-06-14T00:05:09;5.53;;;4.97;;
7471;SDS011;3777;48.722;8.110;2023-06-14T00:07:38;6.63;;;5.60;;
7471;SDS011;3777;48.722;8.110;2023-06-14T00:10:08;5.20;;;4.70;;
7471;SDS011;3777;48.722;8.110;2023-06-14T00:12:35;5.63;;;4.70;;
7471;SDS011;3777;48.722;8.110;2023-06-14T00:15:05;6.70;;;5.23;;
7471;SDS011;3777;48.722;8.110;2023-06-14T00:17:34;6.53;;;4.80;;
7471;SDS011;3777;48.722;8.110;2023-06-14T00:20:02;7.43;;;4.80;;
7471;SDS011;3777;48.722;8.110;2023-06-14T00:22:33;6.72;;;4.75;;
7471;SDS011;3777;48.722;8.110;2023-06-14T00:25:01;5.50;;;4.60;;
7471;SDS011;3777;48.722;8.110;2023-06-14T00:27:29;6.67;;;4.80;;
7471;SDS011;3777;48.722;8.110;2023-06-14T00:29:55;5.20;;;4.33;;
7471;SDS011;3777;48.722;8.110;2023-06-14T00:32:24;6.33;;;4.60;;
7471;SDS011;3777;48.722;8.110;2023-06-14T00:34:53;5.83;;;4.20;;
7471;SDS011;3777;48.722;8.110;2023-06-14T00:37:19;5.40;;;4.90;;
7471;SDS011;3777;48.722;8.110;2023-06-14T00:39:46;5.13;;;4.63;;
7471;SDS011;3777;48.722;8.110;2023-06-14T00:42:22;5.20;;;4.70;;
7471;SDS011;3777;48.722;8.110;2023-06-14T00:44:50;11.27;;;4.80;;
7471;SDS011;3777;48.722;8.110;2023-06-14T00:47:17;5.73;;;5.23;;
7471;SDS011;3777;48.722;8.110;2023-06-14T00:49:47;8.30;;;4.77;;
7471;SDS011;3777;48.722;8.110;2023-06-14T00:52:14;5.33;;;4.83;;
7471;SDS011;3777;48.722;8.110;2023-06-14T00:54:42;6.33;;;5.20;;
7471;SDS011;3777;48.722;8.110;2023-06-14T00:57:09;5.80;;;4.80;;
7471;SDS011;3777;48.722;8.110;2023-06-14T00:59:38;5.80;;;5.10;;
7471;SDS011;3777;48.722;8.110;2023-06-14T01:02:08;5.47;;;4.97;;
7471;SDS011;3777;48.722;8.110;2023-06-14T01:04:35;6.67;;;4.97;;
7471;SDS011;3777;48.722;8.110;2023-06-14T01:07:06;7.27;;;4.77;;
7471;SDS011;3777;48.722;8.110;2023-06-14T01:09:43;7.00;;;4.97;;
7471;SDS011;3777;48.722;8.110;2023-06-14T01:12:21;5.10;;;4.60;;
7471;SDS011;3777;48.722;8.110;2023-06-14T01:14:55;5.73;;;4.83;;
7471;SDS011;3777;48.722;8.110;2023-06-14T01:17:25;5.17;;;4.47;;
7471;SDS011;3777;48.722;8.110;2023-06-14T01:19:57;6.20;;;5.60;;
7471;SDS011;3777;48.722;8.110;2023-06-14T01:22:26;5.70;;;5.10;;
7471;SDS011;3777;48.722;8.110;2023-06-14T01:24:55;6.37;;;4.80;;
7471;SDS011;3777;48.722;8.110;2023-06-14T01:27:23;5.80;;;5.15;;
7471;SDS011;3777;48.722;8.110;2023-06-14T01:29:53;5.90;;;5.30;;
7471;SDS011;3777;48.722;8.110;2023-06-14T01:32:22;6.03;;;5.27;;
7471;SDS011;3777;48.722;8.110;2023-06-14T01:34:50;6.18;;;5.43;;
7471;SDS011;3777;48.722;8.110;2023-06-14T01:37:17;6.80;;;5.30;;
7471;SDS011;3777;48.722;8.110;2023-06-14T01:39:45;6.60;;;5.40;;
7471;SDS011;3777;48.722;8.110;2023-06-14T01:42:15;6.13;;;5.30;;
7471;SDS011;3777;48.722;8.110;2023-06-14T01:44:43;6.40;;;5.68;;
7471;SDS011;3777;48.722;8.110;2023-06-14T01:47:11;7.20;;;6.10;;
7471;SDS011;3777;48.722;8.110;2023-06-14T01:49:38;6.93;;;5.70;;
7471;SDS011;3777;48.722;8.110;2023-06-14T01:52:06;6.20;;;4.97;;
7471;SDS011;3777;48.722;8.110;2023-06-14T01:54:34;6.97;;;5.67;;
7471;SDS011;3777;48.722;8.110;2023-06-14T01:57:06;6.23;;;5.63;;
7471;SDS011;3777;48.722;8.110;2023-06-14T01:59:35;8.70;;;6.10;;
7471;SDS011;3777;48.722;8.110;2023-06-14T02:02:02;10.70;;;6.20;;
7471;SDS011;3777;48.722;8.110;2023-06-14T02:04:30;6.50;;;5.90;;
7471;SDS011;3777;48.722;8.110;2023-06-14T02:06:57;6.40;;;5.80;;
7471;SDS011;3777;48.722;8.110;2023-06-14T02:09:24;8.57;;;6.30;;
7471;SDS011;3777;48.722;8.110;2023-06-14T02:11:51;6.57;;;5.90;;
7471;SDS011;3777;48.722;8.110;2023-06-14T02:14:21;6.60;;;5.90;;
7471;SDS011;3777;48.722;8.110;2023-06-14T02:16:49;8.03;;;6.03;;
7471;SDS011;3777;48.722;8.110;2023-06-14T02:19:16;8.07;;;6.03;;
7471;SDS011;3777;48.722;8.110;2023-06-14T02:21:44;7.70;;;6.60;;
7471;SDS011;3777;48.722;8.110;2023-06-14T02:24:11;6.50;;;5.85;;
7471;SDS011;3777;48.722;8.110;2023-06-14T02:26:38;7.07;;;5.90;;
7471;SDS011;3777;48.722;8.110;2023-06-14T02:29:06;6.70;;;6.10;;
7471;SDS011;3777;48.722;8.110;2023-06-14T02:31:35;7.63;;;6.90;;
7471;SDS011;3777;48.722;8.110;2023-06-14T02:34:03;6.93;;;6.30;;
7471;SDS011;3777;48.722;8.110;2023-06-14T02:36:30;7.35;;;6.47;;
7471;SDS011;3777;48.722;8.110;2023-06-14T02:38:57;6.45;;;5.80;;
7471;SDS011;3777;48.722;8.110;2023-06-14T02:41:24;6.63;;;5.93;;
7471;SDS011;3777;48.722;8.110;2023-06-14T02:43:52;6.93;;;6.22;;
7471;SDS011;3777;48.722;8.110;2023-06-14T02:46:19;6.65;;;6.05;;
7471;SDS011;3777;48.722;8.110;2023-06-14T02:48:46;7.20;;;6.50;;
7471;SDS011;3777;48.722;8.110;2023-06-14T02:51:14;6.82;;;6.13;;
7471;SDS011;3777;48.722;8.110;2023-06-14T02:53:41;6.60;;;6.00;;
7471;SDS011;3777;48.722;8.110;2023-06-14T02:56:08;6.97;;;6.28;;
7471;SDS011;3777;48.722;8.110;2023-06-14T02:58:36;7.28;;;6.57;;
7471;SDS011;3777;48.722;8.110;2023-06-14T03:01:04;7.22;;;5.93;;
7471;SDS011;3777;48.722;8.110;2023-06-14T03:03:32;7.13;;;6.43;;
7471;SDS011;3777;48.722;8.110;2023-06-14T03:06:00;7.20;;;6.50;;
7471;SDS011;3777;48.722;8.110;2023-06-14T03:08:31;8.05;;;6.72;;
7471;SDS011;3777;48.722;8.110;2023-06-14T03:11:03;7.27;;;6.57;;
7471;SDS011;3777;48.722;8.110;2023-06-14T03:13:31;7.32;;;6.60;;
7471;SDS011;3777;48.722;8.110;2023-06-14T03:15:58;7.32;;;6.50;;
7471;SDS011;3777;48.722;8.110;2023-06-14T03:18:27;7.55;;;6.75;;
7471;SDS011;3777;48.722;8.110;2023-06-14T03:20:55;7.18;;;6.57;;
7471;SDS011;3777;48.722;8.110;2023-06-14T03:23:23;7.30;;;6.10;;
7471;SDS011;3777;48.722;8.110;2023-06-14T03:25:51;6.53;;;5.57;;
7471;SDS011;3777;48.722;8.110;2023-06-14T03:28:18;7.57;;;5.80;;
7471;SDS011;3777;48.722;8.110;2023-06-14T03:30:45;7.15;;;6.25;;
7471;SDS011;3777;48.722;8.110;2023-06-14T03:33:12;8.85;;;6.60;;
7471;SDS011;3777;48.722;8.110;2023-06-14T03:35:40;7.40;;;6.15;;
7471;SDS011;3777;48.722;8.110;2023-06-14T03:38:07;6.50;;;5.70;;
7471;SDS011;3777;48.722;8.110;2023-06-14T03:40:34;7.13;;;6.32;;
7471;SDS011;3777;48.722;8.110;2023-06-14T03:43:03;8.00;;;6.50;;
7471;SDS011;3777;48.722;8.110;2023-06-14T03:45:29;6.50;;;5.85;;
7471;SDS011;3777;48.722;8.110;2023-06-14T03:47:56;9.30;;;6.63;;
7471;SDS011;3777;48.722;8.110;2023-06-14T03:50:25;7.93;;;6.50;;
7471;SDS011;3777;48.722;8.110;2023-06-14T03:52:53;8.30;;;6.60;;
7471;SDS011;3777;48.722;8.110;2023-06-14T03:55:20;6.50;;;5.90;;
7471;SDS011;3777;48.722;8.110;2023-06-14T03:57:50;7.20;;;5.70;;
7471;SDS011;3777;48.722;8.110;2023-06-14T04:00:18;6.57;;;5.72;;
7471;SDS011;3777;48.722;8.110;2023-06-14T04:02:46;6.97;;;6.20;;
7471;SDS011;3777;48.722;8.110;2023-06-14T04:05:13;6.40;;;5.68;;
7471;SDS011;3777;48.722;8.110;2023-06-14T04:07:41;6.93;;;6.22;;
7471;SDS011;3777;48.722;8.110;2023-06-14T04:10:10;6.72;;;5.47;;
7471;SDS011;3777;48.722;8.110;2023-06-14T04:12:38;6.32;;;5.32;;
7471;SDS011;3777;48.722;8.110;2023-06-14T04:15:05;6.55;;;5.50;;
7471;SDS011;3777;48.722;8.110;2023-06-14T04:17:35;6.22;;;5.47;;
7471;SDS011;3777;48.722;8.110;2023-06-14T04:20:03;6.88;;;5.20;;
7471;SDS011;3777;48.722;8.110;2023-06-14T04:22:34;7.80;;;5.50;;
7471;SDS011;3777;48.722;8.110;2023-06-14T04:25:01;6.28;;;4.95;;
7471;SDS011;3777;48.722;8.110;2023-06-14T04:27:31;6.75;;;5.32;;
7471;SDS011;3777;48.722;8.110;2023-06-14T04:29:59;7.90;;;5.28;;
7471;SDS011;3777;48.722;8.110;2023-06-14T04:32:28;5.78;;;5.10;;
7471;SDS011;3777;48.722;8.110;2023-06-14T04:35:00;5.78;;;5.00;;
7471;SDS011;3777;48.722;8.110;2023-06-14T04:37:28;6.30;;;4.80;;
7471;SDS011;3777;48.722;8.110;2023-06-14T04:39:55;7.50;;;5.10;;
7471;SDS011;3777;48.722;8.110;2023-06-14T04:42:23;6.65;;;5.10;;
7471;SDS011;3777;48.722;8.110;2023-06-14T04:44:56;7.53;;;4.70;;
7471;SDS011;3777;48.722;8.110;2023-06-14T04:47:24;6.95;;;4.75;;
7471;SDS011;3777;48.722;8.110;2023-06-14T04:49:54;6.30;;;4.70;;
7471;SDS011;3777;48.722;8.110;2023-06-14T04:52:24;6.82;;;5.00;;
7471;SDS011;3777;48.722;8.110;2023-06-14T04:54:51;7.07;;;5.10;;
7471;SDS011;3777;48.722;8.110;2023-06-14T04:57:19;6.82;;;5.05;;
7471;SDS011;3777;48.722;8.110;2023-06-14T04:59:47;5.93;;;4.80;;
7471;SDS011;3777;48.722;8.110;2023-06-14T05:02:20;5.53;;;4.70;;
7471;SDS011;3777;48.722;8.110;2023-06-14T05:04:48;5.97;;;4.87;;
7471;SDS011;3777;48.722;8.110;2023-06-14T05:07:15;7.47;;;4.70;;
7471;SDS011;3777;48.722;8.110;2023-06-14T05:09:44;5.90;;;4.87;;
7471;SDS011;3777;48.722;8.110;2023-06-14T05:12:11;8.17;;;5.00;;
7471;SDS011;3777;48.722;8.110;2023-06-14T05:14:38;5.93;;;4.50;;
7471;SDS011;3777;48.722;8.110;2023-06-14T05:17:08;7.43;;;4.80;;
7471;SDS011;3777;48.722;8.110;2023-06-14T05:19:35;5.77;;;4.93;;
7471;SDS011;3777;48.722;8.110;2023-06-14T05:22:02;5.47;;;4.43;;
7471;SDS011;3777;48.722;8.110;2023-06-14T05:24:29;5.83;;;4.77;;
7471;SDS011;3777;48.722;8.110;2023-06-14T05:26:58;5.27;;;4.60;;
7471;SDS011;3777;48.722;8.110;2023-06-14T05:29:25;5.33;;;4.60;;
7471;SDS011;3777;48.722;8.110;2023-06-14T05:31:52;5.30;;;4.43;;
7471;SDS011;3777;48.722;8.110;2023-06-14T05:34:19;4.63;;;4.17;;
7471;SDS011;3777;48.722;8.110;2023-06-14T05:36:46;7.23;;;4.53;;
7471;SDS011;3777;48.722;8.110;2023-06-14T05:39:13;5.80;;;4.07;;
7471;SDS011;3777;48.722;8.110;2023-06-14T05:41:40;6.45;;;4.32;;
7471;SDS011;3777;48.722;8.110;2023-06-14T05:44:08;5.85;;;5.05;;
7471;SDS011;3777;48.722;8.110;2023-06-14T05:46:35;7.65;;;4.70;;
7471;SDS011;3777;48.722;8.110;2023-06-14T05:49:02;5.38;;;4.57;;
7471;SDS011;3777;48.722;8.110;2023-06-14T05:51:29;7.97;;;4.50;;
7471;SDS011;3777;48.722;8.110;2023-06-14T05:53:56;9.77;;;4.88;;
7471;SDS011;3777;48.722;8.110;2023-06-14T05:56:23;5.63;;;4.60;;
7471;SDS011;3777;48.722;8.110;2023-06-14T05:58:50;6.55;;;4.50;;
7471;SDS011;3777;48.722;8.110;2023-06-14T06:01:18;5.50;;;4.78;;
7471;SDS011;3777;48.722;8.110;2023-06-14T06:03:45;6.70;;;4.35;;
7471;SDS011;3777;48.722;8.110;2023-06-14T06:06:12;6.07;;;4.55;;
7471;SDS011;3777;48.722;8.110;2023-06-14T06:08:40;6.45;;;4.28;;
7471;SDS011;3777;48.722;8.110;2023-06-14T06:11:07;5.95;;;4.43;;
7471;SDS011;3777;48.722;8.110;2023-06-14T06:13:34;5.82;;;4.78;;
7471;SDS011;3777;48.722;8.110;2023-06-14T06:16:01;5.03;;;4.03;;
7471;SDS011;3777;48.722;8.110;2023-06-14T06:18:30;7.00;;;4.88;;
7471;SDS011;3777;48.722;8.110;2023-06-14T06:20:57;5.72;;;4.55;;
7471;SDS011;3777;48.722;8.110;2023-06-14T06:23:24;7.63;;;4.50;;
7471;SDS011;3777;48.722;8.110;2023-06-14T06:25:51;8.10;;;4.70;;
7471;SDS011;3777;48.722;8.110;2023-06-14T06:28:18;6.03;;;4.40;;
7471;SDS011;3777;48.722;8.110;2023-06-14T06:30:45;5.55;;;4.68;;
7471;SDS011;3777;48.722;8.110;2023-06-14T06:33:12;6.80;;;4.25;;
7471;SDS011;3777;48.722;8.110;2023-06-14T06:35:41;5.57;;;4.50;;
7471;SDS011;3777;48.722;8.110;2023-06-14T06:38:08;6.32;;;4.70;;
7471;SDS011;3777;48.722;8.110;2023-06-14T06:40:35;6.82;;;4.13;;
7471;SDS011;3777;48.722;8.110;2023-06-14T06:43:02;6.10;;;4.60;;
7471;SDS011;3777;48.722;8.110;2023-06-14T06:45:29;7.72;;;4.35;;
7471;SDS011;3777;48.722;8.110;2023-06-14T06:47:56;6.03;;;4.28;;
7471;SDS011;3777;48.722;8.110;2023-06-14T06:50:23;5.68;;;4.40;;
7471;SDS011;3777;48.722;8.110;2023-06-14T06:52:52;7.63;;;4.65;;
7471;SDS011;3777;48.722;8.110;2023-06-14T06:55:19;11.80;;;4.90;;
7471;SDS011;3777;48.722;8.110;2023-06-14T06:57:46;7.43;;;4.40;;
7471;SDS011;3777;48.722;8.110;2023-06-14T07:00:15;7.65;;;4.38;;
7471;SDS011;3777;48.722;8.110;2023-06-14T07:02:42;6.72;;;4.57;;
7471;SDS011;3777;48.722;8.110;2023-06-14T07:05:10;5.10;;;4.20;;
7471;SDS011;3777;48.722;8.110;2023-06-14T07:07:37;6.13;;;3.97;;
7471;SDS011;3777;48.722;8.110;2023-06-14T07:10:06;4.65;;;4.03;;
7471;SDS011;3777;48.722;8.110;2023-06-14T07:12:34;7.32;;;3.80;;
7471;SDS011;3777;48.722;8.110;2023-06-14T07:15:04;4.72;;;4.10;;
7471;SDS011;3777;48.722;8.110;2023-06-14T07:17:33;6.32;;;4.50;;
7471;SDS011;3777;48.722;8.110;2023-06-14T07:20:00;12.40;;;4.22;;
7471;SDS011;3777;48.722;8.110;2023-06-14T07:22:37;4.13;;;3.72;;
7471;SDS011;3777;48.722;8.110;2023-06-14T07:25:07;8.60;;;4.22;;
7471;SDS011;3777;48.722;8.110;2023-06-14T07:27:35;7.03;;;4.18;;
7471;SDS011;3777;48.722;8.110;2023-06-14T07:30:02;6.78;;;4.47;;
7471;SDS011;3777;48.722;8.110;2023-06-14T07:32:29;5.07;;;4.57;;
7471;SDS011;3777;48.722;8.110;2023-06-14T07:34:56;9.52;;;4.45;;
7471;SDS011;3777;48.722;8.110;2023-06-14T07:37:23;4.82;;;4.15;;
7471;SDS011;3777;48.722;8.110;2023-06-14T07:39:50;5.80;;;4.13;;
7471;SDS011;3777;48.722;8.110;2023-06-14T07:42:18;6.63;;;4.20;;
7471;SDS011;3777;48.722;8.110;2023-06-14T07:44:45;6.00;;;4.53;;
7471;SDS011;3777;48.722;8.110;2023-06-14T07:47:12;6.30;;;4.55;;
7471;SDS011;3777;48.722;8.110;2023-06-14T07:49:39;7.55;;;4.25;;
7471;SDS011;3777;48.722;8.110;2023-06-14T07:52:07;6.78;;;3.97;;
7471;SDS011;3777;48.722;8.110;2023-06-14T07:54:34;6.97;;;4.50;;
7471;SDS011;3777;48.722;8.110;2023-06-14T07:57:01;5.80;;;4.10;;
7471;SDS011;3777;48.722;8.110;2023-06-14T07:59:29;6.05;;;4.30;;
7471;SDS011;3777;48.722;8.110;2023-06-14T08:01:56;7.03;;;4.25;;
7471;SDS011;3777;48.722;8.110;2023-06-14T08:04:23;5.43;;;4.25;;
7471;SDS011;3777;48.722;8.110;2023-06-14T08:06:50;5.10;;;3.97;;
7471;SDS011;3777;48.722;8.110;2023-06-14T08:09:17;6.82;;;4.07;;
7471;SDS011;3777;48.722;8.110;2023-06-14T08:11:45;6.28;;;4.55;;
7471;SDS011;3777;48.722;8.110;2023-06-14T08:14:12;5.03;;;4.20;;
7471;SDS011;3777;48.722;8.110;2023-06-14T08:16:40;7.05;;;4.15;;
7471;SDS011;3777;48.722;8.110;2023-06-14T08:19:07;5.07;;;4.20;;
7471;SDS011;3777;48.722;8.110;2023-06-14T08:21:34;6.13;;;4.32;;
7471;SDS011;3777;48.722;8.110;2023-06-14T08:24:01;5.35;;;4.10;;
7471;SDS011;3777;48.722;8.110;2023-06-14T08:26:29;6.90;;;4.32;;
7471;SDS011;3777;48.722;8.110;2023-06-14T08:28:57;5.45;;;4.05;;
7471;SDS011;3777;48.722;8.110;2023-06-14T08:31:25;4.50;;;4.10;;
7471;SDS011;3777;48.722;8.110;2023-06-14T08:33:54;7.63;;;4.57;;
7471;SDS011;3777;48.722;8.110;2023-06-14T08:36:32;8.95;;;4.22;;
7471;SDS011;3777;48.722;8.110;2023-06-14T08:39:02;5.60;;;3.70;;
7471;SDS011;3777;48.722;8.110;2023-06-14T08:41:29;6.43;;;4.35;;
7471;SDS011;3777;48.722;8.110;2023-06-14T08:43:56;5.55;;;3.75;;
7471;SDS011;3777;48.722;8.110;2023-06-14T08:46:24;6.85;;;4.20;;
7471;SDS011;3777;48.722;8.110;2023-06-14T08:48:55;6.53;;;4.07;;
7471;SDS011;3777;48.722;8.110;2023-06-14T08:51:24;7.03;;;4.38;;
7471;SDS011;3777;48.722;8.110;2023-06-14T08:53:52;7.07;;;4.10;;
7471;SDS011;3777;48.722;8.110;2023-06-14T08:56:22;5.03;;;3.70;;
7471;SDS011;3777;48.722;8.110;2023-06-14T08:58:52;7.68;;;4.00;;
7471;SDS011;3777;48.722;8.110;2023-06-14T09:01:21;6.97;;;3.80;;
7471;SDS011;3777;48.722;8.110;2023-06-14T09:03:48;5.20;;;4.30;;
7471;SDS011;3777;48.722;8.110;2023-06-14T09:06:17;6.22;;;3.80;;
7471;SDS011;3777;48.722;8.110;2023-06-14T09:08:48;5.10;;;3.90;;
7471;SDS011;3777;48.722;8.110;2023-06-14T09:11:16;5.22;;;3.90;;
7471;SDS011;3777;48.722;8.110;2023-06-14T09:13:44;4.82;;;3.70;;
7471;SDS011;3777;48.722;8.110;2023-06-14T09:16:12;5.35;;;3.67;;
7471;SDS011;3777;48.722;8.110;2023-06-14T09:18:39;4.65;;;4.05;;
7471;SDS011;3777;48.722;8.110;2023-06-14T09:21:08;7.30;;;4.22;;
7471;SDS011;3777;48.722;8.110;2023-06-14T09:23:38;5.20;;;4.32;;
7471;SDS011;3777;48.722;8.110;2023-06-14T09:26:06;7.50;;;3.72;;
7471;SDS011;3777;48.722;8.110;2023-06-14T09:28:34;5.45;;;3.85;;
7471;SDS011;3777;48.722;8.110;2023-06-14T09:31:01;4.70;;;4.20;;
7471;SDS011;3777;48.722;8.110;2023-06-14T09:33:28;5.88;;;3.92;;
7471;SDS011;3777;48.722;8.110;2023-06-14T09:35:56;5.63;;;4.25;;
7471;SDS011;3777;48.722;8.110;2023-06-14T09:38:24;4.53;;;3.72;;
7471;SDS011;3777;48.722;8.110;2023-06-14T09:40:53;5.75;;;4.03;;
7471;SDS011;3777;48.722;8.110;2023-06-14T09:43:23;4.35;;;3.92;;
7471;SDS011;3777;48.722;8.110;2023-06-14T09:45:51;5.95;;;3.80;;
7471;SDS011;3777;48.722;8.110;2023-06-14T09:48:19;6.30;;;3.80;;
7471;SDS011;3777;48.722;8.110;2023-06-14T09:50:47;4.78;;;3.42;;
7471;SDS011;3777;48.722;8.110;2023-06-14T09:53:16;5.55;;;3.83;;
7471;SDS011;3777;48.722;8.110;2023-06-14T09:55:48;5.65;;;3.75;;
7471;SDS011;3777;48.722;8.110;2023-06-14T09:58:17;5.70;;;4.00;;
7471;SDS011;3777;48.722;8.110;2023-06-14T10:00:46;6.70;;;3.70;;
7471;SDS011;3777;48.722;8.110;2023-06-14T10:03:16;4.75;;;3.80;;
7471;SDS011;3777;48.722;8.110;2023-06-14T10:05:47;8.20;;;3.80;;
7471;SDS011;3777;48.722;8.110;2023-06-14T10:08:18;6.35;;;3.40;;
7471;SDS011;3777;48.722;8.110;2023-06-14T10:10:50;4.65;;;3.42;;
7471;SDS011;3777;48.722;8.110;2023-06-14T10:13:19;5.35;;;3.60;;
7471;SDS011;3777;48.722;8.110;2023-06-14T10:15:50;5.47;;;3.35;;
7471;SDS011;3777;48.722;8.110;2023-06-14T10:18:25;3.90;;;3.50;;
7471;SDS011;3777;48.722;8.110;2023-06-14T10:21:00;6.53;;;3.63;;
7471;SDS011;3777;48.722;8.110;2023-06-14T10:23:35;6.00;;;3.40;;
7471;SDS011;3777;48.722;8.110;2023-06-14T10:26:05;5.03;;;3.70;;
7471;SDS011;3777;48.722;8.110;2023-06-14T10:28:34;7.13;;;3.70;;
7471;SDS011;3777;48.722;8.110;2023-06-14T10:31:04;4.43;;;3.38;;
7471;SDS011;3777;48.722;8.110;2023-06-14T10:33:32;3.58;;;3.17;;
7471;SDS011;3777;48.722;8.110;2023-06-14T10:36:07;3.95;;;3.35;;
7471;SDS011;3777;48.722;8.110;2023-06-14T10:38:56;5.00;;;3.42;;
7471;SDS011;3777;48.722;8.110;2023-06-14T10:41:25;3.58;;;3.28;;
7471;SDS011;3777;48.722;8.110;2023-06-14T10:46:55;3.50;;;3.17;;
7471;SDS011;3777;48.722;8.110;2023-06-14T10:49:36;5.00;;;3.75;;
7471;SDS011;3777;48.722;8.110;2023-06-14T10:52:07;4.78;;;3.42;;
7471;SDS011;3777;48.722;8.110;2023-06-14T10:57:29;3.72;;;3.35;;
7471;SDS011;3777;48.722;8.110;2023-06-14T10:59:57;9.73;;;4.25;;
7471;SDS011;3777;48.722;8.110;2023-06-14T11:02:39;3.97;;;3.40;;
7471;SDS011;3777;48.722;8.110;2023-06-14T11:05:16;4.47;;;3.80;;
7471;SDS011;3777;48.722;8.110;2023-06-14T11:07:53;5.47;;;3.60;;
7471;SDS011;3777;48.722;8.110;2023-06-14T11:10:33;5.80;;;3.33;;
7471;SDS011;3777;48.722;8.110;2023-06-14T11:13:04;5.78;;;3.70;;
7471;SDS011;3777;48.722;8.110;2023-06-14T11:15:32;3.97;;;3.58;;
7471;SDS011;3777;48.722;8.110;2023-06-14T11:18:02;7.50;;;3.72;;
7471;SDS011;3777;48.722;8.110;2023-06-14T11:20:30;6.45;;;4.13;;
7471;SDS011;3777;48.722;8.110;2023-06-14T11:22:58;7.50;;;3.70;;
7471;SDS011;3777;48.722;8.110;2023-06-14T11:25:25;4.97;;;3.72;;
7471;SDS011;3777;48.722;8.110;2023-06-14T11:27:54;6.15;;;3.70;;
7471;SDS011;3777;48.722;8.110;2023-06-14T11:30:21;7.32;;;3.63;;
7471;SDS011;3777;48.722;8.110;2023-06-14T11:32:51;4.93;;;3.63;;
7471;SDS011;3777;48.722;8.110;2023-06-14T11:35:21;7.63;;;3.78;;
7471;SDS011;3777;48.722;8.110;2023-06-14T11:37:49;4.13;;;3.72;;
7471;SDS011;3777;48.722;8.110;2023-06-14T11:40:20;5.32;;;3.92;;
7471;SDS011;3777;48.722;8.110;2023-06-14T11:42:54;5.10;;;3.95;;
7471;SDS011;3777;48.722;8.110;2023-06-14T11:45:25;4.93;;;3.80;;
7471;SDS011;3777;48.722;8.110;2023-06-14T11:47:54;7.50;;;3.63;;
7471;SDS011;3777;48.722;8.110;2023-06-14T11:50:24;4.70;;;4.00;;
7471;SDS011;3777;48.722;8.110;2023-06-14T11:55:49;7.47;;;3.83;;
7471;SDS011;3777;48.722;8.110;2023-06-14T11:58:16;4.88;;;3.72;;
7471;SDS011;3777;48.722;8.110;2023-06-14T12:00:44;6.85;;;4.05;;
7471;SDS011;3777;48.722;8.110;2023-06-14T12:03:14;7.20;;;3.88;;
7471;SDS011;3777;48.722;8.110;2023-06-14T12:05:43;5.13;;;4.05;;
7471;SDS011;3777;48.722;8.110;2023-06-14T12:08:10;4.80;;;4.00;;
7471;SDS011;3777;48.722;8.110;2023-06-14T12:10:42;4.80;;;3.88;;
7471;SDS011;3777;48.722;8.110;2023-06-14T12:13:10;4.47;;;4.00;;
7471;SDS011;3777;48.722;8.110;2023-06-14T12:15:37;6.88;;;3.65;;
7471;SDS011;3777;48.722;8.110;2023-06-14T12:18:05;5.50;;;3.88;;
7471;SDS011;3777;48.722;8.110;2023-06-14T12:20:33;6.25;;;3.90;;
7471;SDS011;3777;48.722;8.110;2023-06-14T12:23:03;5.88;;;3.92;;
7471;SDS011;3777;48.722;8.110;2023-06-14T12:25:31;6.18;;;4.20;;
7471;SDS011;3777;48.722;8.110;2023-06-14T12:27:59;5.35;;;4.00;;
7471;SDS011;3777;48.722;8.110;2023-06-14T12:30:30;4.72;;;3.60;;
7471;SDS011;3777;48.722;8.110;2023-06-14T12:32:57;4.82;;;3.70;;
7471;SDS011;3777;48.722;8.110;2023-06-14T12:35:25;4.88;;;4.28;;
7471;SDS011;3777;48.722;8.110;2023-06-14T12:37:52;5.35;;;3.80;;
7471;SDS011;3777;48.722;8.110;2023-06-14T12:40:20;4.90;;;4.03;;
7471;SDS011;3777;48.722;8.110;2023-06-14T12:42:47;6.90;;;4.18;;
7471;SDS011;3777;48.722;8.110;2023-06-14T12:45:15;8.02;;;4.10;;
7471;SDS011;3777;48.722;8.110;2023-06-14T12:47:42;6.57;;;3.83;;
7471;SDS011;3777;48.722;8.110;2023-06-14T12:50:09;5.55;;;4.03;;
7471;SDS011;3777;48.722;8.110;2023-06-14T12:52:36;8.95;;;4.00;;
7471;SDS011;3777;48.722;8.110;2023-06-14T12:55:03;5.57;;;3.83;;
7471;SDS011;3777;48.722;8.110;2023-06-14T12:57:33;5.78;;;4.20;;
7471;SDS011;3777;48.722;8.110;2023-06-14T13:00:02;5.80;;;4.30;;
7471;SDS011;3777;48.722;8.110;2023-06-14T13:02:30;4.82;;;4.35;;
7471;SDS011;3777;48.722;8.110;2023-06-14T13:04:56;5.13;;;4.13;;
7471;SDS011;3777;48.722;8.110;2023-06-14T13:07:25;8.35;;;4.00;;
7471;SDS011;3777;48.722;8.110;2023-06-14T13:09:52;5.63;;;4.20;;
7471;SDS011;3777;48.722;8.110;2023-06-14T13:12:19;6.55;;;4.20;;
7471;SDS011;3777;48.722;8.110;2023-06-14T13:14:47;7.50;;;4.53;;
7471;SDS011;3777;48.722;8.110;2023-06-14T13:17:15;9.00;;;4.15;;
7471;SDS011;3777;48.722;8.110;2023-06-14T13:19:42;6.05;;;4.10;;
7471;SDS011;3777;48.722;8.110;2023-06-14T13:22:09;6.20;;;4.20;;
7471;SDS011;3777;48.722;8.110;2023-06-14T13:24:36;6.55;;;4.15;;
7471;SDS011;3777;48.722;8.110;2023-06-14T13:27:03;5.28;;;4.30;;
7471;SDS011;3777;48.722;8.110;2023-06-14T13:29:31;5.47;;;4.50;;
7471;SDS011;3777;48.722;8.110;2023-06-14T13:32:02;6.95;;;4.20;;
7471;SDS011;3777;48.722;8.110;2023-06-14T13:34:29;7.32;;;4.28;;
7471;SDS011;3777;48.722;8.110;2023-06-14T13:36:56;5.40;;;4.20;;
7471;SDS011;3777;48.722;8.110;2023-06-14T13:39:24;5.88;;;4.40;;
7471;SDS011;3777;48.722;8.110;2023-06-14T13:41:51;6.85;;;4.32;;
7471;SDS011;3777;48.722;8.110;2023-06-14T13:44:17;7.32;;;4.47;;
7471;SDS011;3777;48.722;8.110;2023-06-14T13:46:46;8.25;;;4.35;;
7471;SDS011;3777;48.722;8.110;2023-06-14T13:49:14;6.13;;;4.63;;
7471;SDS011;3777;48.722;8.110;2023-06-14T13:51:41;6.07;;;4.57;;
7471;SDS011;3777;48.722;8.110;2023-06-14T13:54:11;6.68;;;4.40;;
7471;SDS011;3777;48.722;8.110;2023-06-14T13:56:39;7.43;;;4.53;;
7471;SDS011;3777;48.722;8.110;2023-06-14T13:59:06;5.72;;;4.78;;
7471;SDS011;3777;48.722;8.110;2023-06-14T14:01:34;4.78;;;4.32;;
7471;SDS011;3777;48.722;8.110;2023-06-14T14:04:01;7.45;;;4.32;;
7471;SDS011;3777;48.722;8.110;2023-06-14T14:06:29;5.97;;;4.60;;
7471;SDS011;3777;48.722;8.110;2023-06-14T14:08:57;5.68;;;4.68;;
7471;SDS011;3777;48.722;8.110;2023-06-14T14:11:24;8.38;;;4.70;;
7471;SDS011;3777;48.722;8.110;2023-06-14T14:13:51;5.95;;;4.53;;
7471;SDS011;3777;48.722;8.110;2023-06-14T14:16:18;4.60;;;4.20;;
7471;SDS011;3777;48.722;8.110;2023-06-14T14:18:45;7.70;;;4.47;;
7471;SDS011;3777;48.722;8.110;2023-06-14T14:21:12;7.35;;;4.00;;
7471;SDS011;3777;48.722;8.110;2023-06-14T14:23:40;6.28;;;4.50;;
7471;SDS011;3777;48.722;8.110;2023-06-14T14:26:07;7.65;;;4.07;;
7471;SDS011;3777;48.722;8.110;2023-06-14T14:28:37;6.63;;;4.10;;
7471;SDS011;3777;48.722;8.110;2023-06-14T14:31:04;7.35;;;4.38;;
7471;SDS011;3777;48.722;8.110;2023-06-14T14:33:31;6.15;;;4.10;;
7471;SDS011;3777;48.722;8.110;2023-06-14T14:36:00;4.82;;;4.22;;
7471;SDS011;3777;48.722;8.110;2023-06-14T14:38:29;4.18;;;3.78;;
7471;SDS011;3777;48.722;8.110;2023-06-14T14:40:57;5.30;;;4.07;;
7471;SDS011;3777;48.722;8.110;2023-06-14T14:43:24;5.43;;;3.97;;
7471;SDS011;3777;48.722;8.110;2023-06-14T14:45:51;7.45;;;4.15;;
7471;SDS011;3777;48.722;8.110;2023-06-14T14:48:19;4.82;;;4.32;;
7471;SDS011;3777;48.722;8.110;2023-06-14T14:50:46;6.45;;;4.15;;
7471;SDS011;3777;48.722;8.110;2023-06-14T14:53:13;4.85;;;4.13;;
7471;SDS011;3777;48.722;8.110;2023-06-14T14:55:41;5.82;;;4.00;;
7471;SDS011;3777;48.722;8.110;2023-06-14T14:58:10;5.07;;;4.25;;
7471;SDS011;3777;48.722;8.110;2023-06-14T15:00:38;5.53;;;4.13;;
7471;SDS011;3777;48.722;8.110;2023-06-14T15:03:05;6.32;;;4.00;;
7471;SDS011;3777;48.722;8.110;2023-06-14T15:05:32;5.35;;;4.25;;
7471;SDS011;3777;48.722;8.110;2023-06-14T15:07:59;4.70;;;3.85;;
7471;SDS011;3777;48.722;8.110;2023-06-14T15:10:26;5.45;;;4.25;;
7471;SDS011;3777;48.722;8.110;2023-06-14T15:12:52;6.10;;;4.50;;
7471;SDS011;3777;48.722;8.110;2023-06-14T15:15:21;5.45;;;4.13;;
7471;SDS011;3777;48.722;8.110;2023-06-14T15:17:48;6.63;;;4.10;;
7471;SDS011;3777;48.722;8.110;2023-06-14T15:20:15;4.07;;;3.67;;
7471;SDS011;3777;48.722;8.110;2023-06-14T15:22:41;7.43;;;4.13;;
7471;SDS011;3777;48.722;8.110;2023-06-14T15:25:08;6.68;;;3.65;;
7471;SDS011;3777;48.722;8.110;2023-06-14T15:27:35;7.03;;;4.38;;
7471;SDS011;3777;48.722;8.110;2023-06-14T15:30:02;7.40;;;4.25;;